sensor_id;sensor_type;location;lat;lon;timestamp;P1;durP1;ratioP1;P2;durP2;ratioP2
9160;SDS011;4615;51.340;8.288;2023-07-20T00:01:09;14.63;;;13.32;;
9160;SDS011;4615;51.340;8.288;2023-07-20T00:03:35;14.68;;;13.38;;
9160;SDS011;4615;51.340;8.288;2023-07-20T00:06:02;14.68;;;13.18;;
9160;SDS011;4615;51.340;8.288;2023-07-20T00:08:29;13.70;;;12.60;;
9160;SDS011;4615;51.340;8.288;2023-07-20T00:10:57;13.57;;;12.38;;
9160;SDS011;4615;51.340;8.288;2023-07-20T00:13:23;13.40;;;12.20;;
9160;SDS011;4615;51.340;8.288;2023-07-20T00:15:50;12.63;;;11.52;;
9160;SDS011;4615;51.340;8.288;2023-07-20T00:18:16;12.65;;;11.55;;
9160;SDS011;4615;51.340;8.288;2023-07-20T00:20:46;12.27;;;11.18;;
9160;SDS011;4615;51.340;8.288;2023-07-20T00:23:12;12.70;;;11.50;;
9160;SDS011;4615;51.340;8.288;2023-07-20T00:25:39;12.02;;;10.95;;
9160;SDS011;4615;51.340;8.288;2023-07-20T00:28:06;12.15;;;10.95;;
9160;SDS011;4615;51.340;8.288;2023-07-20T00:30:33;11.90;;;10.85;;
9160;SDS011;4615;51.340;8.288;2023-07-20T00:32:59;12.85;;;11.55;;
9160;SDS011;4615;51.340;8.288;2023-07-20T00:35:26;12.00;;;11.00;;
9160;SDS011;4615;51.340;8.288;2023-07-20T00:37:52;12.07;;;10.93;;
9160;SDS011;4615;51.340;8.288;2023-07-20T00:40:18;12.33;;;11.03;;
9160;SDS011;4615;51.340;8.288;2023-07-20T00:42:45;10.90;;;9.88;;
9160;SDS011;4615;51.340;8.288;2023-07-20T00:45:13;13.03;;;11.83;;
9160;SDS011;4615;51.340;8.288;2023-07-20T00:47:39;11.63;;;10.63;;
9160;SDS011;4615;51.340;8.288;2023-07-20T00:50:06;13.93;;;12.63;;
9160;SDS011;4615;51.340;8.288;2023-07-20T00:52:32;11.93;;;10.73;;
9160;SDS011;4615;51.340;8.288;2023-07-20T00:54:59;11.10;;;10.00;;
9160;SDS011;4615;51.340;8.288;2023-07-20T00:57:25;11.10;;;10.02;;
9160;SDS011;4615;51.340;8.288;2023-07-20T00:59:52;12.35;;;11.30;;
9160;SDS011;4615;51.340;8.288;2023-07-20T01:02:20;14.13;;;12.73;;
9160;SDS011;4615;51.340;8.288;2023-07-20T01:04:47;14.30;;;13.00;;
9160;SDS011;4615;51.340;8.288;2023-07-20T01:07:14;12.70;;;11.55;;
9160;SDS011;4615;51.340;8.288;2023-07-20T01:09:44;12.50;;;11.35;;
9160;SDS011;4615;51.340;8.288;2023-07-20T01:12:12;13.98;;;12.63;;
9160;SDS011;4615;51.340;8.288;2023-07-20T01:14:39;13.80;;;12.50;;
9160;SDS011;4615;51.340;8.288;2023-07-20T01:17:06;14.52;;;12.55;;
9160;SDS011;4615;51.340;8.288;2023-07-20T01:19:34;12.38;;;11.18;;
9160;SDS011;4615;51.340;8.288;2023-07-20T01:22:01;13.10;;;12.00;;
9160;SDS011;4615;51.340;8.288;2023-07-20T01:24:32;13.00;;;11.80;;
9160;SDS011;4615;51.340;8.288;2023-07-20T01:32:34;12.30;;;11.10;;
9160;SDS011;4615;51.340;8.288;2023-07-20T01:35:02;12.55;;;11.35;;
9160;SDS011;4615;51.340;8.288;2023-07-20T01:37:28;11.73;;;10.52;;
9160;SDS011;4615;51.340;8.288;2023-07-20T01:39:56;12.75;;;11.43;;
9160;SDS011;4615;51.340;8.288;2023-07-20T01:42:23;12.20;;;10.90;;
9160;SDS011;4615;51.340;8.288;2023-07-20T01:44:50;12.40;;;11.13;;
9160;SDS011;4615;51.340;8.288;2023-07-20T01:47:16;12.55;;;11.35;;
9160;SDS011;4615;51.340;8.288;2023-07-20T01:49:44;12.63;;;11.38;;
9160;SDS011;4615;51.340;8.288;2023-07-20T01:52:11;12.95;;;11.75;;
9160;SDS011;4615;51.340;8.288;2023-07-20T01:54:37;12.95;;;11.65;;
9160;SDS011;4615;51.340;8.288;2023-07-20T01:57:04;13.43;;;12.05;;
9160;SDS011;4615;51.340;8.288;2023-07-20T01:59:31;13.33;;;11.93;;
9160;SDS011;4615;51.340;8.288;2023-07-20T02:01:57;12.45;;;11.25;;
9160;SDS011;4615;51.340;8.288;2023-07-20T02:04:23;12.88;;;11.55;;
9160;SDS011;4615;51.340;8.288;2023-07-20T02:06:51;13.73;;;12.32;;
9160;SDS011;4615;51.340;8.288;2023-07-20T02:09:17;13.37;;;11.97;;
9160;SDS011;4615;51.340;8.288;2023-07-20T02:11:45;12.98;;;11.68;;
9160;SDS011;4615;51.340;8.288;2023-07-20T02:14:11;12.40;;;11.23;;
9160;SDS011;4615;51.340;8.288;2023-07-20T02:16:37;13.13;;;11.82;;
9160;SDS011;4615;51.340;8.288;2023-07-20T02:19:04;14.35;;;12.85;;
9160;SDS011;4615;51.340;8.288;2023-07-20T02:21:32;13.73;;;12.00;;
9160;SDS011;4615;51.340;8.288;2023-07-20T02:23:59;13.45;;;12.05;;
9160;SDS011;4615;51.340;8.288;2023-07-20T02:26:26;14.35;;;12.95;;
9160;SDS011;4615;51.340;8.288;2023-07-20T02:28:53;14.25;;;12.85;;
9160;SDS011;4615;51.340;8.288;2023-07-20T02:31:19;15.25;;;13.43;;
9160;SDS011;4615;51.340;8.288;2023-07-20T02:33:46;14.38;;;12.80;;
9160;SDS011;4615;51.340;8.288;2023-07-20T02:36:12;13.93;;;12.52;;
9160;SDS011;4615;51.340;8.288;2023-07-20T02:38:38;14.23;;;12.83;;
9160;SDS011;4615;51.340;8.288;2023-07-20T02:41:06;14.65;;;13.25;;
9160;SDS011;4615;51.340;8.288;2023-07-20T02:43:32;14.70;;;13.30;;
9160;SDS011;4615;51.340;8.288;2023-07-20T02:45:59;15.05;;;13.00;;
9160;SDS011;4615;51.340;8.288;2023-07-20T02:48:25;13.55;;;12.25;;
9160;SDS011;4615;51.340;8.288;2023-07-20T02:50:51;14.90;;;13.40;;
9160;SDS011;4615;51.340;8.288;2023-07-20T02:53:18;15.15;;;13.50;;
9160;SDS011;4615;51.340;8.288;2023-07-20T02:55:44;15.23;;;13.65;;
9160;SDS011;4615;51.340;8.288;2023-07-20T02:58:12;14.75;;;13.25;;
9160;SDS011;4615;51.340;8.288;2023-07-20T03:00:38;15.07;;;13.43;;
9160;SDS011;4615;51.340;8.288;2023-07-20T03:03:05;15.23;;;13.63;;
9160;SDS011;4615;51.340;8.288;2023-07-20T03:05:34;15.27;;;13.77;;
9160;SDS011;4615;51.340;8.288;2023-07-20T03:08:02;15.05;;;13.45;;
9160;SDS011;4615;51.340;8.288;2023-07-20T03:10:28;15.63;;;13.87;;
9160;SDS011;4615;51.340;8.288;2023-07-20T03:12:55;14.88;;;13.38;;
9160;SDS011;4615;51.340;8.288;2023-07-20T03:15:22;15.07;;;13.48;;
9160;SDS011;4615;51.340;8.288;2023-07-20T03:17:49;16.17;;;14.47;;
9160;SDS011;4615;51.340;8.288;2023-07-20T03:20:16;16.65;;;14.75;;
9160;SDS011;4615;51.340;8.288;2023-07-20T03:22:43;18.10;;;14.45;;
9160;SDS011;4615;51.340;8.288;2023-07-20T03:25:09;14.60;;;13.17;;
9160;SDS011;4615;51.340;8.288;2023-07-20T03:27:35;16.15;;;14.45;;
9160;SDS011;4615;51.340;8.288;2023-07-20T03:30:02;16.05;;;14.45;;
9160;SDS011;4615;51.340;8.288;2023-07-20T03:32:30;16.40;;;14.77;;
9160;SDS011;4615;51.340;8.288;2023-07-20T03:34:56;15.38;;;13.82;;
9160;SDS011;4615;51.340;8.288;2023-07-20T03:37:22;15.68;;;13.93;;
9160;SDS011;4615;51.340;8.288;2023-07-20T03:39:49;15.00;;;13.50;;
9160;SDS011;4615;51.340;8.288;2023-07-20T03:42:15;14.15;;;12.75;;
9160;SDS011;4615;51.340;8.288;2023-07-20T03:44:41;14.05;;;12.40;;
9160;SDS011;4615;51.340;8.288;2023-07-20T03:47:08;13.52;;;12.23;;
9160;SDS011;4615;51.340;8.288;2023-07-20T03:49:35;13.25;;;11.90;;
9160;SDS011;4615;51.340;8.288;2023-07-20T03:52:02;13.55;;;12.25;;
9160;SDS011;4615;51.340;8.288;2023-07-20T03:54:29;14.68;;;12.48;;
9160;SDS011;4615;51.340;8.288;2023-07-20T03:56:55;13.77;;;12.38;;
9160;SDS011;4615;51.340;8.288;2023-07-20T03:59:22;14.80;;;12.60;;
9160;SDS011;4615;51.340;8.288;2023-07-20T04:01:48;12.93;;;11.73;;
9160;SDS011;4615;51.340;8.288;2023-07-20T04:04:15;13.13;;;11.68;;
9160;SDS011;4615;51.340;8.288;2023-07-20T04:06:43;12.75;;;11.45;;
9160;SDS011;4615;51.340;8.288;2023-07-20T04:09:11;13.43;;;12.15;;
9160;SDS011;4615;51.340;8.288;2023-07-20T04:11:37;12.10;;;10.90;;
9160;SDS011;4615;51.340;8.288;2023-07-20T04:14:03;12.90;;;11.60;;
9160;SDS011;4615;51.340;8.288;2023-07-20T04:16:30;11.57;;;10.38;;
9160;SDS011;4615;51.340;8.288;2023-07-20T04:18:56;11.55;;;10.35;;
9160;SDS011;4615;51.340;8.288;2023-07-20T04:21:25;10.40;;;9.30;;
9160;SDS011;4615;51.340;8.288;2023-07-20T04:23:53;11.73;;;10.63;;
9160;SDS011;4615;51.340;8.288;2023-07-20T04:26:19;10.77;;;9.55;;
9160;SDS011;4615;51.340;8.288;2023-07-20T04:28:46;11.18;;;9.98;;
9160;SDS011;4615;51.340;8.288;2023-07-20T04:31:13;9.47;;;8.00;;
9160;SDS011;4615;51.340;8.288;2023-07-20T04:33:40;9.95;;;7.60;;
9160;SDS011;4615;51.340;8.288;2023-07-20T04:36:06;9.20;;;7.87;;
9160;SDS011;4615;51.340;8.288;2023-07-20T04:38:34;8.55;;;7.75;;
9160;SDS011;4615;51.340;8.288;2023-07-20T04:41:01;7.47;;;6.43;;
9160;SDS011;4615;51.340;8.288;2023-07-20T04:43:28;8.00;;;6.57;;
9160;SDS011;4615;51.340;8.288;2023-07-20T04:45:55;7.38;;;6.63;;
9160;SDS011;4615;51.340;8.288;2023-07-20T04:48:21;7.43;;;6.72;;
9160;SDS011;4615;51.340;8.288;2023-07-20T04:50:48;6.88;;;6.20;;
9160;SDS011;4615;51.340;8.288;2023-07-20T04:53:14;7.85;;;6.30;;
9160;SDS011;4615;51.340;8.288;2023-07-20T04:55:40;7.63;;;6.82;;
9160;SDS011;4615;51.340;8.288;2023-07-20T04:58:08;7.47;;;6.77;;
9160;SDS011;4615;51.340;8.288;2023-07-20T05:00:34;8.38;;;7.13;;
9160;SDS011;4615;51.340;8.288;2023-07-20T05:03:01;7.97;;;7.20;;
9160;SDS011;4615;51.340;8.288;2023-07-20T05:05:30;8.13;;;7.38;;
9160;SDS011;4615;51.340;8.288;2023-07-20T05:07:56;8.23;;;7.28;;
9160;SDS011;4615;51.340;8.288;2023-07-20T05:10:23;9.85;;;8.85;;
9160;SDS011;4615;51.340;8.288;2023-07-20T05:12:49;11.43;;;9.70;;
9160;SDS011;4615;51.340;8.288;2023-07-20T05:15:17;11.40;;;10.30;;
9160;SDS011;4615;51.340;8.288;2023-07-20T05:17:43;12.15;;;10.90;;
9160;SDS011;4615;51.340;8.288;2023-07-20T05:20:10;11.07;;;9.98;;
9160;SDS011;4615;51.340;8.288;2023-07-20T05:22:37;14.38;;;11.60;;
9160;SDS011;4615;51.340;8.288;2023-07-20T05:25:05;14.60;;;13.20;;
9160;SDS011;4615;51.340;8.288;2023-07-20T05:27:32;14.35;;;12.85;;
9160;SDS011;4615;51.340;8.288;2023-07-20T05:29:58;14.77;;;13.27;;
9160;SDS011;4615;51.340;8.288;2023-07-20T05:32:26;14.45;;;12.98;;
9160;SDS011;4615;51.340;8.288;2023-07-20T05:34:52;14.35;;;12.95;;
9160;SDS011;4615;51.340;8.288;2023-07-20T05:37:19;15.57;;;14.10;;
9160;SDS011;4615;51.340;8.288;2023-07-20T05:39:45;16.10;;;14.60;;
9160;SDS011;4615;51.340;8.288;2023-07-20T05:42:11;16.73;;;15.20;;
9160;SDS011;4615;51.340;8.288;2023-07-20T05:44:38;16.85;;;15.25;;
9160;SDS011;4615;51.340;8.288;2023-07-20T05:47:05;18.85;;;17.08;;
9160;SDS011;4615;51.340;8.288;2023-07-20T05:49:33;18.20;;;16.40;;
9160;SDS011;4615;51.340;8.288;2023-07-20T05:52:00;18.42;;;16.52;;
9160;SDS011;4615;51.340;8.288;2023-07-20T05:54:26;18.15;;;16.45;;
9160;SDS011;4615;51.340;8.288;2023-07-20T05:56:53;18.97;;;17.17;;
9160;SDS011;4615;51.340;8.288;2023-07-20T05:59:20;18.98;;;17.15;;
9160;SDS011;4615;51.340;8.288;2023-07-20T06:01:46;18.90;;;17.08;;
9160;SDS011;4615;51.340;8.288;2023-07-20T06:04:13;19.10;;;17.30;;
9160;SDS011;4615;51.340;8.288;2023-07-20T06:06:41;18.75;;;16.95;;
9160;SDS011;4615;51.340;8.288;2023-07-20T06:09:07;18.75;;;17.05;;
9160;SDS011;4615;51.340;8.288;2023-07-20T06:11:36;19.48;;;17.58;;
9160;SDS011;4615;51.340;8.288;2023-07-20T06:14:03;19.00;;;17.13;;
9160;SDS011;4615;51.340;8.288;2023-07-20T06:16:29;18.00;;;16.40;;
9160;SDS011;4615;51.340;8.288;2023-07-20T06:18:56;17.67;;;16.08;;
9160;SDS011;4615;51.340;8.288;2023-07-20T06:21:22;18.08;;;16.38;;
9160;SDS011;4615;51.340;8.288;2023-07-20T06:23:50;13.90;;;12.60;;
9160;SDS011;4615;51.340;8.288;2023-07-20T06:26:16;14.27;;;12.98;;
9160;SDS011;4615;51.340;8.288;2023-07-20T06:28:42;13.70;;;12.50;;
9160;SDS011;4615;51.340;8.288;2023-07-20T06:31:09;9.85;;;8.88;;
9160;SDS011;4615;51.340;8.288;2023-07-20T06:33:35;7.60;;;6.95;;
9160;SDS011;4615;51.340;8.288;2023-07-20T06:36:02;8.17;;;7.47;;
9160;SDS011;4615;51.340;8.288;2023-07-20T06:38:28;6.97;;;6.10;;
9160;SDS011;4615;51.340;8.288;2023-07-20T06:40:56;8.07;;;7.28;;
9160;SDS011;4615;51.340;8.288;2023-07-20T06:43:23;5.95;;;5.40;;
9160;SDS011;4615;51.340;8.288;2023-07-20T06:45:50;5.40;;;4.90;;
9160;SDS011;4615;51.340;8.288;2023-07-20T06:48:17;4.80;;;4.30;;
9160;SDS011;4615;51.340;8.288;2023-07-20T06:50:43;5.10;;;4.60;;
9160;SDS011;4615;51.340;8.288;2023-07-20T06:53:10;6.10;;;5.50;;
9160;SDS011;4615;51.340;8.288;2023-07-20T06:55:36;5.80;;;5.20;;
9160;SDS011;4615;51.340;8.288;2023-07-20T06:58:04;5.95;;;5.45;;
9160;SDS011;4615;51.340;8.288;2023-07-20T07:00:30;5.50;;;5.00;;
9160;SDS011;4615;51.340;8.288;2023-07-20T07:02:56;5.50;;;5.00;;
9160;SDS011;4615;51.340;8.288;2023-07-20T07:05:23;5.50;;;4.90;;
9160;SDS011;4615;51.340;8.288;2023-07-20T07:07:49;5.72;;;5.15;;
9160;SDS011;4615;51.340;8.288;2023-07-20T07:10:15;5.40;;;4.90;;
9160;SDS011;4615;51.340;8.288;2023-07-20T07:12:43;5.80;;;5.28;;
9160;SDS011;4615;51.340;8.288;2023-07-20T07:15:11;5.60;;;5.20;;
9160;SDS011;4615;51.340;8.288;2023-07-20T07:17:37;5.32;;;4.82;;
9160;SDS011;4615;51.340;8.288;2023-07-20T07:20:04;5.40;;;4.90;;
9160;SDS011;4615;51.340;8.288;2023-07-20T07:22:31;4.88;;;4.43;;
9160;SDS011;4615;51.340;8.288;2023-07-20T07:24:57;5.82;;;5.22;;
9160;SDS011;4615;51.340;8.288;2023-07-20T07:27:23;5.00;;;4.60;;
9160;SDS011;4615;51.340;8.288;2023-07-20T07:29:50;5.10;;;4.60;;
9160;SDS011;4615;51.340;8.288;2023-07-20T07:32:17;5.00;;;4.60;;
9160;SDS011;4615;51.340;8.288;2023-07-20T07:34:44;5.18;;;4.68;;
9160;SDS011;4615;51.340;8.288;2023-07-20T07:37:11;5.80;;;5.27;;
9160;SDS011;4615;51.340;8.288;2023-07-20T07:39:37;6.40;;;5.90;;
9160;SDS011;4615;51.340;8.288;2023-07-20T07:42:04;6.50;;;5.90;;
9160;SDS011;4615;51.340;8.288;2023-07-20T07:44:31;6.30;;;5.80;;
9160;SDS011;4615;51.340;8.288;2023-07-20T07:46:57;6.00;;;5.60;;
9160;SDS011;4615;51.340;8.288;2023-07-20T07:49:25;6.57;;;5.97;;
9160;SDS011;4615;51.340;8.288;2023-07-20T07:51:51;6.83;;;6.23;;
9160;SDS011;4615;51.340;8.288;2023-07-20T07:54:18;7.05;;;6.55;;
9160;SDS011;4615;51.340;8.288;2023-07-20T07:56:44;6.50;;;6.00;;
9160;SDS011;4615;51.340;8.288;2023-07-20T07:59:10;6.63;;;6.13;;
9160;SDS011;4615;51.340;8.288;2023-07-20T08:01:37;6.63;;;6.13;;
9160;SDS011;4615;51.340;8.288;2023-07-20T08:04:03;5.72;;;5.32;;
9160;SDS011;4615;51.340;8.288;2023-07-20T08:06:31;6.45;;;5.95;;
9160;SDS011;4615;51.340;8.288;2023-07-20T08:08:57;6.35;;;5.85;;
9160;SDS011;4615;51.340;8.288;2023-07-20T08:11:24;6.40;;;5.90;;
9160;SDS011;4615;51.340;8.288;2023-07-20T08:13:50;7.00;;;6.40;;
9160;SDS011;4615;51.340;8.288;2023-07-20T08:16:17;6.93;;;6.30;;
9160;SDS011;4615;51.340;8.288;2023-07-20T08:18:43;6.95;;;6.35;;
9160;SDS011;4615;51.340;8.288;2023-07-20T08:21:10;6.30;;;5.80;;
9160;SDS011;4615;51.340;8.288;2023-07-20T08:23:38;6.65;;;6.05;;
9160;SDS011;4615;51.340;8.288;2023-07-20T08:26:04;6.05;;;5.55;;
9160;SDS011;4615;51.340;8.288;2023-07-20T08:28:31;6.15;;;5.65;;
9160;SDS011;4615;51.340;8.288;2023-07-20T08:30:57;6.07;;;5.57;;
9160;SDS011;4615;51.340;8.288;2023-07-20T08:33:23;6.25;;;5.75;;
9160;SDS011;4615;51.340;8.288;2023-07-20T08:35:50;6.20;;;5.70;;
9160;SDS011;4615;51.340;8.288;2023-07-20T08:38:16;5.68;;;5.22;;
9160;SDS011;4615;51.340;8.288;2023-07-20T08:40:45;6.03;;;5.60;;
9160;SDS011;4615;51.340;8.288;2023-07-20T08:43:12;6.53;;;6.03;;
9160;SDS011;4615;51.340;8.288;2023-07-20T08:45:39;5.80;;;5.30;;
9160;SDS011;4615;51.340;8.288;2023-07-20T08:48:06;6.18;;;5.65;;
9160;SDS011;4615;51.340;8.288;2023-07-20T08:50:33;5.43;;;5.03;;
9160;SDS011;4615;51.340;8.288;2023-07-20T08:53:00;6.05;;;5.55;;
9160;SDS011;4615;51.340;8.288;2023-07-20T08:55:27;5.80;;;5.22;;
9160;SDS011;4615;51.340;8.288;2023-07-20T08:57:55;6.05;;;5.55;;
9160;SDS011;4615;51.340;8.288;2023-07-20T09:00:22;5.50;;;5.03;;
9160;SDS011;4615;51.340;8.288;2023-07-20T09:02:49;5.15;;;4.75;;
9160;SDS011;4615;51.340;8.288;2023-07-20T09:05:16;4.47;;;4.13;;
9160;SDS011;4615;51.340;8.288;2023-07-20T09:07:43;4.38;;;4.03;;
9160;SDS011;4615;51.340;8.288;2023-07-20T09:10:09;4.10;;;3.70;;
9160;SDS011;4615;51.340;8.288;2023-07-20T09:12:37;3.60;;;3.35;;
9160;SDS011;4615;51.340;8.288;2023-07-20T09:15:05;3.95;;;3.65;;
9160;SDS011;4615;51.340;8.288;2023-07-20T09:17:32;4.90;;;3.30;;
9160;SDS011;4615;51.340;8.288;2023-07-20T09:19:58;3.38;;;3.17;;
9160;SDS011;4615;51.340;8.288;2023-07-20T09:22:29;3.63;;;3.33;;
9160;SDS011;4615;51.340;8.288;2023-07-20T09:24:55;3.75;;;3.45;;
9160;SDS011;4615;51.340;8.288;2023-07-20T09:27:21;3.27;;;3.07;;
9160;SDS011;4615;51.340;8.288;2023-07-20T09:29:48;3.55;;;3.30;;
9160;SDS011;4615;51.340;8.288;2023-07-20T09:32:19;3.03;;;2.72;;
9160;SDS011;4615;51.340;8.288;2023-07-20T09:34:46;2.88;;;2.67;;
9160;SDS011;4615;51.340;8.288;2023-07-20T09:37:12;2.97;;;2.78;;
9160;SDS011;4615;51.340;8.288;2023-07-20T09:39:42;2.55;;;2.35;;
9160;SDS011;4615;51.340;8.288;2023-07-20T09:42:09;2.60;;;2.40;;
9160;SDS011;4615;51.340;8.288;2023-07-20T09:44:37;2.50;;;2.30;;
9160;SDS011;4615;51.340;8.288;2023-07-20T09:47:03;2.50;;;2.30;;
9160;SDS011;4615;51.340;8.288;2023-07-20T09:49:31;2.40;;;2.20;;
9160;SDS011;4615;51.340;8.288;2023-07-20T09:51:58;2.83;;;2.40;;
9160;SDS011;4615;51.340;8.288;2023-07-20T09:54:25;2.40;;;2.20;;
9160;SDS011;4615;51.340;8.288;2023-07-20T09:56:53;2.22;;;1.90;;
9160;SDS011;4615;51.340;8.288;2023-07-20T09:59:20;1.90;;;1.80;;
9160;SDS011;4615;51.340;8.288;2023-07-20T10:01:46;2.15;;;2.00;;
9160;SDS011;4615;51.340;8.288;2023-07-20T10:04:13;4.50;;;1.80;;
9160;SDS011;4615;51.340;8.288;2023-07-20T10:06:42;1.80;;;1.70;;
9160;SDS011;4615;51.340;8.288;2023-07-20T10:09:09;2.05;;;1.85;;
9160;SDS011;4615;51.340;8.288;2023-07-20T10:11:36;1.90;;;1.80;;
9160;SDS011;4615;51.340;8.288;2023-07-20T10:14:04;2.10;;;1.90;;
9160;SDS011;4615;51.340;8.288;2023-07-20T10:16:34;2.03;;;1.92;;
9160;SDS011;4615;51.340;8.288;2023-07-20T10:19:03;2.03;;;1.92;;
9160;SDS011;4615;51.340;8.288;2023-07-20T10:21:31;2.05;;;1.70;;
9160;SDS011;4615;51.340;8.288;2023-07-20T10:24:01;1.95;;;1.70;;
9160;SDS011;4615;51.340;8.288;2023-07-20T10:26:27;1.92;;;1.75;;
9160;SDS011;4615;51.340;8.288;2023-07-20T10:28:53;2.65;;;1.70;;
9160;SDS011;4615;51.340;8.288;2023-07-20T10:31:20;2.65;;;1.80;;
9160;SDS011;4615;51.340;8.288;2023-07-20T10:33:47;2.22;;;1.83;;
9160;SDS011;4615;51.340;8.288;2023-07-20T10:36:15;1.73;;;1.60;;
9160;SDS011;4615;51.340;8.288;2023-07-20T10:38:42;1.88;;;1.73;;
9160;SDS011;4615;51.340;8.288;2023-07-20T10:41:19;1.80;;;1.70;;
9160;SDS011;4615;51.340;8.288;2023-07-20T10:43:46;2.40;;;1.52;;
9160;SDS011;4615;51.340;8.288;2023-07-20T10:46:13;1.92;;;1.73;;
9160;SDS011;4615;51.340;8.288;2023-07-20T10:51:24;2.25;;;1.48;;
9160;SDS011;4615;51.340;8.288;2023-07-20T10:53:50;1.70;;;1.60;;
9160;SDS011;4615;51.340;8.288;2023-07-20T10:56:20;1.90;;;1.50;;
9160;SDS011;4615;51.340;8.288;2023-07-20T10:58:47;1.50;;;1.40;;
9160;SDS011;4615;51.340;8.288;2023-07-20T11:01:14;1.70;;;1.60;;
9160;SDS011;4615;51.340;8.288;2023-07-20T11:03:42;1.75;;;1.65;;
9160;SDS011;4615;51.340;8.288;2023-07-20T11:06:29;1.60;;;1.50;;
9160;SDS011;4615;51.340;8.288;2023-07-20T11:09:04;2.63;;;1.30;;
9160;SDS011;4615;51.340;8.288;2023-07-20T11:11:33;2.00;;;1.50;;
9160;SDS011;4615;51.340;8.288;2023-07-20T11:14:00;1.70;;;1.50;;
9160;SDS011;4615;51.340;8.288;2023-07-20T11:16:39;1.67;;;1.50;;
9160;SDS011;4615;51.340;8.288;2023-07-20T11:19:06;1.60;;;1.30;;
9160;SDS011;4615;51.340;8.288;2023-07-20T11:21:36;1.40;;;1.30;;
9160;SDS011;4615;51.340;8.288;2023-07-20T11:24:03;1.40;;;1.30;;
9160;SDS011;4615;51.340;8.288;2023-07-20T11:26:31;1.40;;;1.30;;
9160;SDS011;4615;51.340;8.288;2023-07-20T11:29:05;2.00;;;1.30;;
9160;SDS011;4615;51.340;8.288;2023-07-20T11:31:34;1.83;;;1.10;;
9160;SDS011;4615;51.340;8.288;2023-07-20T11:34:00;2.17;;;1.27;;
9160;SDS011;4615;51.340;8.288;2023-07-20T11:36:27;1.35;;;1.25;;
9160;SDS011;4615;51.340;8.288;2023-07-20T11:38:53;2.00;;;1.40;;
9160;SDS011;4615;51.340;8.288;2023-07-20T11:41:20;1.48;;;1.38;;
9160;SDS011;4615;51.340;8.288;2023-07-20T11:43:47;1.30;;;1.20;;
9160;SDS011;4615;51.340;8.288;2023-07-20T11:46:14;1.30;;;1.20;;
9160;SDS011;4615;51.340;8.288;2023-07-20T11:48:41;1.40;;;1.30;;
9160;SDS011;4615;51.340;8.288;2023-07-20T11:51:12;1.20;;;1.10;;
9160;SDS011;4615;51.340;8.288;2023-07-20T11:53:39;2.28;;;1.10;;
9160;SDS011;4615;51.340;8.288;2023-07-20T11:56:05;1.30;;;1.20;;
9160;SDS011;4615;51.340;8.288;2023-07-20T11:58:32;1.40;;;1.30;;
9160;SDS011;4615;51.340;8.288;2023-07-20T12:00:59;1.30;;;1.20;;
9160;SDS011;4615;51.340;8.288;2023-07-20T12:03:26;2.60;;;1.30;;
9160;SDS011;4615;51.340;8.288;2023-07-20T12:05:53;1.40;;;1.30;;
9160;SDS011;4615;51.340;8.288;2023-07-20T12:08:19;1.30;;;1.17;;
9160;SDS011;4615;51.340;8.288;2023-07-20T12:10:45;2.10;;;1.40;;
9160;SDS011;4615;51.340;8.288;2023-07-20T12:13:12;2.95;;;1.60;;
9160;SDS011;4615;51.340;8.288;2023-07-20T12:15:38;1.48;;;1.35;;
9160;SDS011;4615;51.340;8.288;2023-07-20T12:18:06;1.30;;;1.20;;
9160;SDS011;4615;51.340;8.288;2023-07-20T12:20:33;2.60;;;1.10;;
9160;SDS011;4615;51.340;8.288;2023-07-20T12:23:00;1.20;;;1.20;;
9160;SDS011;4615;51.340;8.288;2023-07-20T12:25:36;1.30;;;1.20;;
9160;SDS011;4615;51.340;8.288;2023-07-20T12:28:04;1.27;;;1.20;;
9160;SDS011;4615;51.340;8.288;2023-07-20T12:30:30;1.15;;;1.10;;
9160;SDS011;4615;51.340;8.288;2023-07-20T12:32:57;1.27;;;1.17;;
9160;SDS011;4615;51.340;8.288;2023-07-20T12:35:25;1.27;;;1.02;;
9160;SDS011;4615;51.340;8.288;2023-07-20T12:37:51;3.67;;;1.50;;
9160;SDS011;4615;51.340;8.288;2023-07-20T12:40:18;1.20;;;1.15;;
9160;SDS011;4615;51.340;8.288;2023-07-20T12:42:45;1.20;;;1.20;;
9160;SDS011;4615;51.340;8.288;2023-07-20T12:45:11;1.38;;;1.20;;
9160;SDS011;4615;51.340;8.288;2023-07-20T12:47:38;1.60;;;1.30;;
9160;SDS011;4615;51.340;8.288;2023-07-20T12:50:04;1.27;;;1.17;;
9160;SDS011;4615;51.340;8.288;2023-07-20T12:52:35;1.90;;;1.20;;
9160;SDS011;4615;51.340;8.288;2023-07-20T12:55:02;1.80;;;1.20;;
9160;SDS011;4615;51.340;8.288;2023-07-20T12:57:28;1.30;;;1.20;;
9160;SDS011;4615;51.340;8.288;2023-07-20T12:59:54;1.42;;;1.20;;
9160;SDS011;4615;51.340;8.288;2023-07-20T13:02:21;1.27;;;1.17;;
9160;SDS011;4615;51.340;8.288;2023-07-20T13:04:47;1.20;;;1.10;;
9160;SDS011;4615;51.340;8.288;2023-07-20T13:07:13;1.23;;;1.17;;
9160;SDS011;4615;51.340;8.288;2023-07-20T13:09:41;1.70;;;1.10;;
9160;SDS011;4615;51.340;8.288;2023-07-20T13:12:08;1.40;;;1.13;;
9160;SDS011;4615;51.340;8.288;2023-07-20T13:14:34;1.23;;;1.13;;
9160;SDS011;4615;51.340;8.288;2023-07-20T13:17:01;1.50;;;1.30;;
9160;SDS011;4615;51.340;8.288;2023-07-20T13:19:27;1.83;;;1.20;;
9160;SDS011;4615;51.340;8.288;2023-07-20T13:21:53;1.10;;;1.00;;
9160;SDS011;4615;51.340;8.288;2023-07-20T13:24:20;2.40;;;1.30;;
9160;SDS011;4615;51.340;8.288;2023-07-20T13:26:47;1.30;;;1.20;;
9160;SDS011;4615;51.340;8.288;2023-07-20T13:29:14;1.45;;;1.15;;
9160;SDS011;4615;51.340;8.288;2023-07-20T13:31:40;1.63;;;1.20;;
9160;SDS011;4615;51.340;8.288;2023-07-20T13:34:07;1.30;;;1.20;;
9160;SDS011;4615;51.340;8.288;2023-07-20T13:36:33;2.00;;;1.10;;
9160;SDS011;4615;51.340;8.288;2023-07-20T13:38:59;1.50;;;1.20;;
9160;SDS011;4615;51.340;8.288;2023-07-20T13:41:26;1.20;;;1.10;;
9160;SDS011;4615;51.340;8.288;2023-07-20T13:43:54;1.38;;;1.00;;
9160;SDS011;4615;51.340;8.288;2023-07-20T13:46:20;0.98;;;0.98;;
9160;SDS011;4615;51.340;8.288;2023-07-20T13:48:46;1.23;;;1.02;;
9160;SDS011;4615;51.340;8.288;2023-07-20T13:51:13;1.15;;;1.10;;
9160;SDS011;4615;51.340;8.288;2023-07-20T13:53:39;0.90;;;0.90;;
9160;SDS011;4615;51.340;8.288;2023-07-20T13:56:06;1.48;;;1.10;;
9160;SDS011;4615;51.340;8.288;2023-07-20T13:58:32;1.70;;;1.10;;
9160;SDS011;4615;51.340;8.288;2023-07-20T14:01:00;1.27;;;1.17;;
9160;SDS011;4615;51.340;8.288;2023-07-20T14:03:26;1.27;;;1.20;;
9160;SDS011;4615;51.340;8.288;2023-07-20T14:05:52;1.30;;;1.20;;
9160;SDS011;4615;51.340;8.288;2023-07-20T14:08:19;1.42;;;1.13;;
9160;SDS011;4615;51.340;8.288;2023-07-20T14:10:45;1.40;;;1.30;;
9160;SDS011;4615;51.340;8.288;2023-07-20T14:13:11;1.30;;;1.13;;
9160;SDS011;4615;51.340;8.288;2023-07-20T14:15:38;2.58;;;1.23;;
9160;SDS011;4615;51.340;8.288;2023-07-20T14:18:06;1.30;;;1.20;;
9160;SDS011;4615;51.340;8.288;2023-07-20T14:20:32;1.55;;;1.20;;
9160;SDS011;4615;51.340;8.288;2023-07-20T14:22:58;1.40;;;1.30;;
9160;SDS011;4615;51.340;8.288;2023-07-20T14:25:25;1.80;;;1.38;;
9160;SDS011;4615;51.340;8.288;2023-07-20T14:27:51;1.30;;;1.20;;
9160;SDS011;4615;51.340;8.288;2023-07-20T14:30:18;1.67;;;1.20;;
9160;SDS011;4615;51.340;8.288;2023-07-20T14:32:44;1.30;;;1.20;;
9160;SDS011;4615;51.340;8.288;2023-07-20T14:35:12;1.77;;;1.20;;
9160;SDS011;4615;51.340;8.288;2023-07-20T14:37:39;1.23;;;1.13;;
9160;SDS011;4615;51.340;8.288;2023-07-20T14:40:06;1.75;;;1.10;;
9160;SDS011;4615;51.340;8.288;2023-07-20T14:42:32;2.05;;;1.35;;
9160;SDS011;4615;51.340;8.288;2023-07-20T14:44:59;1.30;;;1.20;;
9160;SDS011;4615;51.340;8.288;2023-07-20T14:47:25;1.30;;;1.17;;
9160;SDS011;4615;51.340;8.288;2023-07-20T14:49:51;2.03;;;1.20;;
9160;SDS011;4615;51.340;8.288;2023-07-20T14:52:19;1.40;;;1.30;;
9160;SDS011;4615;51.340;8.288;2023-07-20T14:54:46;1.42;;;1.23;;
9160;SDS011;4615;51.340;8.288;2023-07-20T14:57:12;1.30;;;1.20;;
9160;SDS011;4615;51.340;8.288;2023-07-20T14:59:39;1.10;;;1.10;;
9160;SDS011;4615;51.340;8.288;2023-07-20T15:02:06;1.70;;;1.30;;
9160;SDS011;4615;51.340;8.288;2023-07-20T15:04:33;2.40;;;1.23;;
9160;SDS011;4615;51.340;8.288;2023-07-20T15:06:59;2.03;;;1.30;;
9160;SDS011;4615;51.340;8.288;2023-07-20T15:09:27;1.40;;;1.30;;
9160;SDS011;4615;51.340;8.288;2023-07-20T15:11:53;1.30;;;1.20;;